Cumberland College, KY

07:10 AM EDT on September 01, 2014 (GMT -0400)
Mackey Bend | Change Station
CLOSE
Current Station
Personal Weather Stations
Location: Barbourville, KY
Elevation: 1020 ft
Nearby Weather Stations

Elev 1020 ft 36.81 °N, 83.96 °W | Updated 15 seconds ago

Molnigt
Molnigt
67.3 °F
Feels Like 67.3 °F
N
0.0
Vind Växlande Vind from Västlig
Gusts 0.0 miles/tim

Idag
High -- | Low -- °F
--% Chance of Precip.
Yesterday
High -- | Low -- °F
Precip. -- tum
7:07 AM 8:04 PM
Första kvarteret, 40% visible
Lufttryck 30.08 tum
Sikt 10.0 miles
Molnigt Molnigt 1800 ft
Daggpunkt 67 °F
Luftfuktighet 99%
Rainfall 0.00 tum
Snow Depth Not available.
UV 0 out of 12
Pollen 7.00 out of 12
Air Quality Not available.
Flu Activity Not available.
METAR KLOZ 011053Z AUTO 20005KT 10SM OVC018 22/19 A3012 RMK AO2 SLP186 T02220194

More Conditions Fewer Conditions

Lufttryck 30.08 tum
Sikt 10.0 miles
Molnigt Molnigt 1800 ft
Daggpunkt 67 °F
Luftfuktighet 99%
Rainfall 0.00 tum
Snow Depth Not available.
UV 0 out of 12
Pollen 7.00 out of 12
Air Quality Not available.
Flu Activity Not available.
METAR KLOZ 011053Z AUTO 20005KT 10SM OVC018 22/19 A3012 RMK AO2 SLP186 T02220194

More Conditions Fewer Conditions

10-Day Weather Forecast

Almanac

Astronomi

Sep. 01, 2014 Rise Set
Actual Time 7:07 AM EDT 8:04 PM EDT
Civil Twilight 6:41 AM EDT 8:31 PM EDT
Nautical Twilight 6:09 AM EDT 9:02 PM EDT
Astronomical Twilight 5:37 AM EDT 9:34 PM EDT
Månen 1:42 PM EDT Ingen månnedgång
Length Of Visible Light 13h 50m
Dagens längd
12h 57m
Tomorrow will be 2m 14s shorter.
Första kvarteret, 40% of the Moon is Illuminated
Idag
Första kvarteret
Sep 2
Första kvarteret
Sep 8
Fullmåne
Sep 15
Sista kvarteret
Sep 24
New

Today's Extremes

State Highs State Lows

Community

WunderPhotos

Upload Photos

1,749,188 photos uploaded!

Nearby

Snödjup

Station Depth Elevation
No new snow has been reported.

Earthquake Activity

Stad Distance Mag. Time & Date
No recent earthquake activity has been reported nearby.
Minimum magnitude displayed is 2.5.

Coastal Water Temperatures

Plats Temperatur
No Stations Reporting

Nearby Weather Stations